sensor_id;sensor_type;location;lat;lon;timestamp;P1;durP1;ratioP1;P2;durP2;ratioP2
31966;SDS011;18496;52.042;6.812;2023-08-20T00:01:39;9.38;;;4.40;;
31966;SDS011;18496;52.042;6.812;2023-08-20T00:03:43;7.25;;;4.68;;
31966;SDS011;18496;52.042;6.812;2023-08-20T00:05:49;9.68;;;4.50;;
31966;SDS011;18496;52.042;6.812;2023-08-20T00:07:53;8.13;;;4.25;;
31966;SDS011;18496;52.042;6.812;2023-08-20T00:09:57;8.30;;;5.00;;
31966;SDS011;18496;52.042;6.812;2023-08-20T00:12:01;7.47;;;5.05;;
31966;SDS011;18496;52.042;6.812;2023-08-20T00:14:06;9.85;;;5.15;;
31966;SDS011;18496;52.042;6.812;2023-08-20T00:16:10;9.30;;;4.53;;
31966;SDS011;18496;52.042;6.812;2023-08-20T00:18:14;12.07;;;4.78;;
31966;SDS011;18496;52.042;6.812;2023-08-20T00:20:18;9.90;;;4.63;;
31966;SDS011;18496;52.042;6.812;2023-08-20T00:22:23;6.97;;;4.50;;
31966;SDS011;18496;52.042;6.812;2023-08-20T00:24:28;7.88;;;4.97;;
31966;SDS011;18496;52.042;6.812;2023-08-20T00:26:32;12.05;;;4.97;;
31966;SDS011;18496;52.042;6.812;2023-08-20T00:28:36;10.43;;;4.18;;
31966;SDS011;18496;52.042;6.812;2023-08-20T00:30:41;6.50;;;4.50;;
31966;SDS011;18496;52.042;6.812;2023-08-20T00:32:45;10.48;;;4.63;;
31966;SDS011;18496;52.042;6.812;2023-08-20T00:34:49;11.35;;;4.28;;
31966;SDS011;18496;52.042;6.812;2023-08-20T00:36:53;7.40;;;4.03;;
31966;SDS011;18496;52.042;6.812;2023-08-20T00:38:57;6.05;;;4.13;;
31966;SDS011;18496;52.042;6.812;2023-08-20T00:41:01;12.90;;;4.60;;
31966;SDS011;18496;52.042;6.812;2023-08-20T00:43:05;9.07;;;4.15;;
31966;SDS011;18496;52.042;6.812;2023-08-20T00:45:09;10.43;;;4.78;;
31966;SDS011;18496;52.042;6.812;2023-08-20T00:47:13;7.32;;;4.28;;
31966;SDS011;18496;52.042;6.812;2023-08-20T00:49:17;11.68;;;5.18;;
31966;SDS011;18496;52.042;6.812;2023-08-20T00:51:22;8.95;;;4.55;;
31966;SDS011;18496;52.042;6.812;2023-08-20T00:53:26;12.50;;;4.70;;
31966;SDS011;18496;52.042;6.812;2023-08-20T00:55:30;6.78;;;4.50;;
31966;SDS011;18496;52.042;6.812;2023-08-20T00:57:34;6.53;;;4.57;;
31966;SDS011;18496;52.042;6.812;2023-08-20T00:59:40;9.18;;;4.53;;
31966;SDS011;18496;52.042;6.812;2023-08-20T01:01:46;8.20;;;4.82;;
31966;SDS011;18496;52.042;6.812;2023-08-20T01:03:50;13.23;;;5.93;;
31966;SDS011;18496;52.042;6.812;2023-08-20T01:05:58;9.88;;;4.68;;
31966;SDS011;18496;52.042;6.812;2023-08-20T01:08:33;10.88;;;5.18;;
31966;SDS011;18496;52.042;6.812;2023-08-20T01:12:52;6.00;;;4.10;;
31966;SDS011;18496;52.042;6.812;2023-08-20T01:14:56;6.18;;;4.15;;
31966;SDS011;18496;52.042;6.812;2023-08-20T01:17:00;7.60;;;4.70;;
31966;SDS011;18496;52.042;6.812;2023-08-20T01:19:04;12.50;;;4.75;;
31966;SDS011;18496;52.042;6.812;2023-08-20T01:23:48;12.07;;;4.60;;
31966;SDS011;18496;52.042;6.812;2023-08-20T01:28:42;13.07;;;4.63;;
31966;SDS011;18496;52.042;6.812;2023-08-20T01:30:47;10.32;;;4.28;;
31966;SDS011;18496;52.042;6.812;2023-08-20T01:32:52;7.65;;;4.40;;
31966;SDS011;18496;52.042;6.812;2023-08-20T01:34:57;13.20;;;4.85;;
31966;SDS011;18496;52.042;6.812;2023-08-20T01:37:01;10.85;;;5.03;;
31966;SDS011;18496;52.042;6.812;2023-08-20T01:39:05;7.57;;;4.57;;
31966;SDS011;18496;52.042;6.812;2023-08-20T01:41:09;17.00;;;4.68;;
31966;SDS011;18496;52.042;6.812;2023-08-20T01:43:13;10.25;;;4.40;;
31966;SDS011;18496;52.042;6.812;2023-08-20T01:45:16;13.98;;;4.85;;
31966;SDS011;18496;52.042;6.812;2023-08-20T01:47:21;9.82;;;4.53;;
31966;SDS011;18496;52.042;6.812;2023-08-20T01:49:25;8.00;;;4.60;;
31966;SDS011;18496;52.042;6.812;2023-08-20T01:51:29;8.07;;;4.38;;
31966;SDS011;18496;52.042;6.812;2023-08-20T01:53:33;10.20;;;4.75;;
31966;SDS011;18496;52.042;6.812;2023-08-20T01:55:38;10.02;;;5.07;;
31966;SDS011;18496;52.042;6.812;2023-08-20T01:57:41;13.55;;;4.45;;
31966;SDS011;18496;52.042;6.812;2023-08-20T01:59:47;12.07;;;4.68;;
31966;SDS011;18496;52.042;6.812;2023-08-20T02:01:51;7.43;;;4.32;;
31966;SDS011;18496;52.042;6.812;2023-08-20T02:03:55;8.85;;;4.70;;
31966;SDS011;18496;52.042;6.812;2023-08-20T02:05:59;13.40;;;5.22;;
31966;SDS011;18496;52.042;6.812;2023-08-20T02:08:02;7.07;;;4.63;;
31966;SDS011;18496;52.042;6.812;2023-08-20T02:10:09;12.70;;;5.00;;
31966;SDS011;18496;52.042;6.812;2023-08-20T02:12:15;12.00;;;4.88;;
31966;SDS011;18496;52.042;6.812;2023-08-20T02:14:19;13.20;;;4.57;;
31966;SDS011;18496;52.042;6.812;2023-08-20T02:16:23;6.72;;;4.68;;
31966;SDS011;18496;52.042;6.812;2023-08-20T02:18:26;14.05;;;4.70;;
31966;SDS011;18496;52.042;6.812;2023-08-20T02:20:31;10.10;;;4.68;;
31966;SDS011;18496;52.042;6.812;2023-08-20T02:22:34;8.68;;;4.07;;
31966;SDS011;18496;52.042;6.812;2023-08-20T02:24:39;16.30;;;4.28;;
31966;SDS011;18496;52.042;6.812;2023-08-20T02:26:42;10.52;;;4.72;;
31966;SDS011;18496;52.042;6.812;2023-08-20T02:28:46;8.95;;;4.18;;
31966;SDS011;18496;52.042;6.812;2023-08-20T02:30:50;10.90;;;4.40;;
31966;SDS011;18496;52.042;6.812;2023-08-20T02:32:54;9.80;;;4.93;;
31966;SDS011;18496;52.042;6.812;2023-08-20T02:34:57;6.97;;;3.97;;
31966;SDS011;18496;52.042;6.812;2023-08-20T02:37:03;7.40;;;4.10;;
31966;SDS011;18496;52.042;6.812;2023-08-20T02:39:07;12.05;;;4.28;;
31966;SDS011;18496;52.042;6.812;2023-08-20T02:41:12;7.38;;;4.10;;
31966;SDS011;18496;52.042;6.812;2023-08-20T02:43:16;6.57;;;3.75;;
31966;SDS011;18496;52.042;6.812;2023-08-20T02:45:20;10.02;;;4.53;;
31966;SDS011;18496;52.042;6.812;2023-08-20T02:47:23;10.30;;;4.07;;
31966;SDS011;18496;52.042;6.812;2023-08-20T02:49:27;10.77;;;4.88;;
31966;SDS011;18496;52.042;6.812;2023-08-20T02:51:31;13.27;;;5.13;;
31966;SDS011;18496;52.042;6.812;2023-08-20T02:53:35;8.23;;;4.60;;
31966;SDS011;18496;52.042;6.812;2023-08-20T02:55:39;11.52;;;5.22;;
31966;SDS011;18496;52.042;6.812;2023-08-20T02:57:42;10.15;;;4.93;;
31966;SDS011;18496;52.042;6.812;2023-08-20T02:59:46;11.02;;;5.60;;
31966;SDS011;18496;52.042;6.812;2023-08-20T03:01:50;10.63;;;5.25;;
31966;SDS011;18496;52.042;6.812;2023-08-20T03:03:54;8.63;;;5.05;;
31966;SDS011;18496;52.042;6.812;2023-08-20T03:05:58;11.13;;;5.63;;
31966;SDS011;18496;52.042;6.812;2023-08-20T03:08:02;8.27;;;4.93;;
31966;SDS011;18496;52.042;6.812;2023-08-20T03:10:07;15.30;;;5.45;;
31966;SDS011;18496;52.042;6.812;2023-08-20T03:12:11;8.27;;;5.13;;
31966;SDS011;18496;52.042;6.812;2023-08-20T03:14:14;7.57;;;5.15;;
31966;SDS011;18496;52.042;6.812;2023-08-20T03:16:18;10.65;;;5.70;;
31966;SDS011;18496;52.042;6.812;2023-08-20T03:18:22;11.95;;;5.20;;
31966;SDS011;18496;52.042;6.812;2023-08-20T03:20:26;13.27;;;5.30;;
31966;SDS011;18496;52.042;6.812;2023-08-20T03:22:31;11.85;;;5.38;;
31966;SDS011;18496;52.042;6.812;2023-08-20T03:24:35;11.48;;;5.93;;
31966;SDS011;18496;52.042;6.812;2023-08-20T03:26:39;16.95;;;5.55;;
31966;SDS011;18496;52.042;6.812;2023-08-20T03:28:43;13.25;;;5.55;;
31966;SDS011;18496;52.042;6.812;2023-08-20T03:30:47;10.48;;;5.57;;
31966;SDS011;18496;52.042;6.812;2023-08-20T03:32:54;12.60;;;5.60;;
31966;SDS011;18496;52.042;6.812;2023-08-20T03:34:58;8.73;;;5.47;;
31966;SDS011;18496;52.042;6.812;2023-08-20T03:37:03;14.00;;;5.43;;
31966;SDS011;18496;52.042;6.812;2023-08-20T03:39:07;12.85;;;5.90;;
31966;SDS011;18496;52.042;6.812;2023-08-20T03:41:11;8.10;;;4.88;;
31966;SDS011;18496;52.042;6.812;2023-08-20T03:43:15;7.47;;;4.82;;
31966;SDS011;18496;52.042;6.812;2023-08-20T03:45:19;11.77;;;5.28;;
31966;SDS011;18496;52.042;6.812;2023-08-20T03:47:23;10.07;;;5.60;;
31966;SDS011;18496;52.042;6.812;2023-08-20T03:49:27;8.32;;;4.78;;
31966;SDS011;18496;52.042;6.812;2023-08-20T03:51:31;9.93;;;5.25;;
31966;SDS011;18496;52.042;6.812;2023-08-20T03:53:35;11.20;;;4.70;;
31966;SDS011;18496;52.042;6.812;2023-08-20T03:55:39;11.52;;;5.82;;
31966;SDS011;18496;52.042;6.812;2023-08-20T03:57:42;12.73;;;5.80;;
31966;SDS011;18496;52.042;6.812;2023-08-20T03:59:46;11.35;;;5.90;;
31966;SDS011;18496;52.042;6.812;2023-08-20T04:01:50;8.23;;;5.57;;
31966;SDS011;18496;52.042;6.812;2023-08-20T04:03:54;8.02;;;6.20;;
31966;SDS011;18496;52.042;6.812;2023-08-20T04:05:58;19.58;;;6.70;;
31966;SDS011;18496;52.042;6.812;2023-08-20T04:08:02;9.07;;;5.93;;
31966;SDS011;18496;52.042;6.812;2023-08-20T04:10:10;15.13;;;6.00;;
31966;SDS011;18496;52.042;6.812;2023-08-20T04:12:13;10.60;;;6.57;;
31966;SDS011;18496;52.042;6.812;2023-08-20T04:14:17;10.82;;;6.30;;
31966;SDS011;18496;52.042;6.812;2023-08-20T04:16:22;14.02;;;6.90;;
31966;SDS011;18496;52.042;6.812;2023-08-20T04:18:26;9.15;;;6.18;;
31966;SDS011;18496;52.042;6.812;2023-08-20T04:20:33;11.85;;;6.45;;
31966;SDS011;18496;52.042;6.812;2023-08-20T04:22:39;10.45;;;5.82;;
31966;SDS011;18496;52.042;6.812;2023-08-20T04:24:43;12.10;;;5.80;;
31966;SDS011;18496;52.042;6.812;2023-08-20T04:26:47;10.98;;;6.38;;
31966;SDS011;18496;52.042;6.812;2023-08-20T04:28:55;13.10;;;7.05;;
31966;SDS011;18496;52.042;6.812;2023-08-20T04:31:00;11.55;;;6.40;;
31966;SDS011;18496;52.042;6.812;2023-08-20T04:33:13;10.57;;;6.10;;
31966;SDS011;18496;52.042;6.812;2023-08-20T04:35:21;10.70;;;6.38;;
31966;SDS011;18496;52.042;6.812;2023-08-20T04:37:25;9.65;;;5.80;;
31966;SDS011;18496;52.042;6.812;2023-08-20T04:39:29;12.90;;;7.15;;
31966;SDS011;18496;52.042;6.812;2023-08-20T04:41:34;10.52;;;6.40;;
31966;SDS011;18496;52.042;6.812;2023-08-20T04:43:39;13.13;;;6.35;;
31966;SDS011;18496;52.042;6.812;2023-08-20T04:45:43;12.75;;;5.78;;
31966;SDS011;18496;52.042;6.812;2023-08-20T04:47:47;13.27;;;7.00;;
31966;SDS011;18496;52.042;6.812;2023-08-20T04:49:52;10.90;;;6.13;;
31966;SDS011;18496;52.042;6.812;2023-08-20T04:51:56;8.15;;;5.30;;
31966;SDS011;18496;52.042;6.812;2023-08-20T04:54:00;15.30;;;7.13;;
31966;SDS011;18496;52.042;6.812;2023-08-20T04:56:04;10.52;;;6.20;;
31966;SDS011;18496;52.042;6.812;2023-08-20T04:58:08;12.63;;;6.70;;
31966;SDS011;18496;52.042;6.812;2023-08-20T05:00:13;13.23;;;7.38;;
31966;SDS011;18496;52.042;6.812;2023-08-20T05:02:26;10.45;;;6.50;;
31966;SDS011;18496;52.042;6.812;2023-08-20T05:04:34;12.88;;;6.93;;
31966;SDS011;18496;52.042;6.812;2023-08-20T05:06:38;14.68;;;7.30;;
31966;SDS011;18496;52.042;6.812;2023-08-20T05:08:44;14.38;;;6.72;;
31966;SDS011;18496;52.042;6.812;2023-08-20T05:10:49;16.50;;;7.32;;
31966;SDS011;18496;52.042;6.812;2023-08-20T05:12:54;19.27;;;8.52;;
31966;SDS011;18496;52.042;6.812;2023-08-20T05:14:58;17.40;;;8.82;;
31966;SDS011;18496;52.042;6.812;2023-08-20T05:17:02;17.17;;;7.78;;
31966;SDS011;18496;52.042;6.812;2023-08-20T05:19:06;13.95;;;7.43;;
31966;SDS011;18496;52.042;6.812;2023-08-20T05:21:10;18.00;;;8.63;;
31966;SDS011;18496;52.042;6.812;2023-08-20T05:23:16;15.90;;;8.35;;
31966;SDS011;18496;52.042;6.812;2023-08-20T05:25:20;16.48;;;8.27;;
31966;SDS011;18496;52.042;6.812;2023-08-20T05:27:25;16.95;;;7.85;;
31966;SDS011;18496;52.042;6.812;2023-08-20T05:29:29;15.52;;;7.82;;
31966;SDS011;18496;52.042;6.812;2023-08-20T05:31:33;14.52;;;8.10;;
31966;SDS011;18496;52.042;6.812;2023-08-20T05:33:38;17.08;;;8.25;;
31966;SDS011;18496;52.042;6.812;2023-08-20T05:35:41;21.55;;;8.27;;
31966;SDS011;18496;52.042;6.812;2023-08-20T05:37:47;13.75;;;6.85;;
31966;SDS011;18496;52.042;6.812;2023-08-20T05:39:51;11.70;;;7.63;;
31966;SDS011;18496;52.042;6.812;2023-08-20T05:41:56;17.30;;;8.07;;
31966;SDS011;18496;52.042;6.812;2023-08-20T05:44:02;15.63;;;7.82;;
31966;SDS011;18496;52.042;6.812;2023-08-20T05:46:06;12.68;;;7.70;;
31966;SDS011;18496;52.042;6.812;2023-08-20T05:48:10;25.15;;;8.15;;
31966;SDS011;18496;52.042;6.812;2023-08-20T05:50:15;15.85;;;8.02;;
31966;SDS011;18496;52.042;6.812;2023-08-20T05:52:19;12.60;;;7.97;;
31966;SDS011;18496;52.042;6.812;2023-08-20T05:54:22;14.32;;;8.50;;
31966;SDS011;18496;52.042;6.812;2023-08-20T05:56:29;16.20;;;8.70;;
31966;SDS011;18496;52.042;6.812;2023-08-20T05:58:33;19.15;;;8.48;;
31966;SDS011;18496;52.042;6.812;2023-08-20T06:00:37;13.43;;;7.50;;
31966;SDS011;18496;52.042;6.812;2023-08-20T06:02:41;15.73;;;8.02;;
31966;SDS011;18496;52.042;6.812;2023-08-20T06:04:46;20.45;;;9.25;;
31966;SDS011;18496;52.042;6.812;2023-08-20T06:06:50;18.60;;;8.55;;
31966;SDS011;18496;52.042;6.812;2023-08-20T06:08:53;15.57;;;8.57;;
31966;SDS011;18496;52.042;6.812;2023-08-20T06:10:57;17.58;;;8.73;;
31966;SDS011;18496;52.042;6.812;2023-08-20T06:13:01;16.75;;;8.25;;
31966;SDS011;18496;52.042;6.812;2023-08-20T06:15:05;12.07;;;8.07;;
31966;SDS011;18496;52.042;6.812;2023-08-20T06:17:11;16.15;;;8.70;;
31966;SDS011;18496;52.042;6.812;2023-08-20T06:19:15;14.48;;;8.13;;
31966;SDS011;18496;52.042;6.812;2023-08-20T06:21:18;13.43;;;8.05;;
31966;SDS011;18496;52.042;6.812;2023-08-20T06:23:22;19.35;;;9.48;;
31966;SDS011;18496;52.042;6.812;2023-08-20T06:25:26;14.07;;;8.18;;
31966;SDS011;18496;52.042;6.812;2023-08-20T06:27:30;8.60;;;6.07;;
31966;SDS011;18496;52.042;6.812;2023-08-20T06:29:34;20.25;;;8.02;;
31966;SDS011;18496;52.042;6.812;2023-08-20T06:31:38;13.35;;;8.57;;
31966;SDS011;18496;52.042;6.812;2023-08-20T06:33:42;13.00;;;8.60;;
31966;SDS011;18496;52.042;6.812;2023-08-20T06:35:45;16.65;;;8.02;;
31966;SDS011;18496;52.042;6.812;2023-08-20T06:37:49;17.10;;;8.48;;
31966;SDS011;18496;52.042;6.812;2023-08-20T06:39:53;14.95;;;7.80;;
31966;SDS011;18496;52.042;6.812;2023-08-20T06:41:57;20.75;;;9.65;;
31966;SDS011;18496;52.042;6.812;2023-08-20T06:44:02;18.02;;;9.13;;
31966;SDS011;18496;52.042;6.812;2023-08-20T06:46:06;15.70;;;9.45;;
31966;SDS011;18496;52.042;6.812;2023-08-20T06:48:10;21.00;;;10.32;;
31966;SDS011;18496;52.042;6.812;2023-08-20T06:50:14;20.45;;;11.43;;
31966;SDS011;18496;52.042;6.812;2023-08-20T06:52:17;18.90;;;10.38;;
31966;SDS011;18496;52.042;6.812;2023-08-20T06:54:21;21.15;;;9.85;;
31966;SDS011;18496;52.042;6.812;2023-08-20T06:56:26;20.48;;;11.63;;
31966;SDS011;18496;52.042;6.812;2023-08-20T06:58:29;21.02;;;11.25;;
31966;SDS011;18496;52.042;6.812;2023-08-20T07:00:33;22.88;;;12.93;;
31966;SDS011;18496;52.042;6.812;2023-08-20T07:02:37;26.58;;;14.50;;
31966;SDS011;18496;52.042;6.812;2023-08-20T07:04:41;33.83;;;14.75;;
31966;SDS011;18496;52.042;6.812;2023-08-20T07:06:44;23.23;;;13.68;;
31966;SDS011;18496;52.042;6.812;2023-08-20T07:08:48;25.50;;;14.48;;
31966;SDS011;18496;52.042;6.812;2023-08-20T07:10:53;26.17;;;15.60;;
31966;SDS011;18496;52.042;6.812;2023-08-20T07:12:57;24.70;;;13.75;;
31966;SDS011;18496;52.042;6.812;2023-08-20T07:15:01;27.17;;;15.55;;
31966;SDS011;18496;52.042;6.812;2023-08-20T07:17:05;25.08;;;14.75;;
31966;SDS011;18496;52.042;6.812;2023-08-20T07:19:09;26.35;;;14.23;;
31966;SDS011;18496;52.042;6.812;2023-08-20T07:21:12;29.42;;;13.85;;
31966;SDS011;18496;52.042;6.812;2023-08-20T07:23:16;26.33;;;15.82;;
31966;SDS011;18496;52.042;6.812;2023-08-20T07:25:20;28.25;;;15.80;;
31966;SDS011;18496;52.042;6.812;2023-08-20T07:27:24;27.33;;;14.50;;
31966;SDS011;18496;52.042;6.812;2023-08-20T07:29:28;24.17;;;14.40;;
31966;SDS011;18496;52.042;6.812;2023-08-20T07:31:33;26.42;;;15.13;;
31966;SDS011;18496;52.042;6.812;2023-08-20T07:33:37;25.42;;;15.90;;
31966;SDS011;18496;52.042;6.812;2023-08-20T07:35:41;29.80;;;15.65;;
31966;SDS011;18496;52.042;6.812;2023-08-20T07:37:44;29.92;;;17.10;;
31966;SDS011;18496;52.042;6.812;2023-08-20T07:39:50;26.85;;;16.02;;
31966;SDS011;18496;52.042;6.812;2023-08-20T07:41:53;30.42;;;15.90;;
31966;SDS011;18496;52.042;6.812;2023-08-20T07:43:57;32.80;;;18.00;;
31966;SDS011;18496;52.042;6.812;2023-08-20T07:46:01;27.67;;;16.83;;
31966;SDS011;18496;52.042;6.812;2023-08-20T07:48:05;32.17;;;17.27;;
31966;SDS011;18496;52.042;6.812;2023-08-20T07:50:09;31.55;;;17.55;;
31966;SDS011;18496;52.042;6.812;2023-08-20T07:52:12;35.13;;;17.15;;
31966;SDS011;18496;52.042;6.812;2023-08-20T07:54:16;36.55;;;17.20;;
31966;SDS011;18496;52.042;6.812;2023-08-20T07:56:20;29.77;;;17.40;;
31966;SDS011;18496;52.042;6.812;2023-08-20T07:58:24;26.02;;;16.67;;
31966;SDS011;18496;52.042;6.812;2023-08-20T08:00:28;30.83;;;17.00;;
31966;SDS011;18496;52.042;6.812;2023-08-20T08:02:32;27.50;;;14.88;;
31966;SDS011;18496;52.042;6.812;2023-08-20T08:04:36;30.95;;;17.50;;
31966;SDS011;18496;52.042;6.812;2023-08-20T08:06:40;30.92;;;17.38;;
31966;SDS011;18496;52.042;6.812;2023-08-20T08:08:43;31.25;;;16.30;;
31966;SDS011;18496;52.042;6.812;2023-08-20T08:10:47;25.35;;;15.30;;
31966;SDS011;18496;52.042;6.812;2023-08-20T08:12:51;26.13;;;15.07;;
31966;SDS011;18496;52.042;6.812;2023-08-20T08:14:55;38.45;;;17.30;;
31966;SDS011;18496;52.042;6.812;2023-08-20T08:16:59;27.20;;;16.42;;
31966;SDS011;18496;52.042;6.812;2023-08-20T08:19:03;26.65;;;16.58;;
31966;SDS011;18496;52.042;6.812;2023-08-20T08:21:07;28.17;;;15.95;;
31966;SDS011;18496;52.042;6.812;2023-08-20T08:23:10;30.58;;;15.73;;
31966;SDS011;18496;52.042;6.812;2023-08-20T08:25:14;27.30;;;17.05;;
31966;SDS011;18496;52.042;6.812;2023-08-20T08:27:18;30.23;;;16.85;;
31966;SDS011;18496;52.042;6.812;2023-08-20T08:29:22;33.08;;;16.38;;
31966;SDS011;18496;52.042;6.812;2023-08-20T08:31:26;30.73;;;16.55;;
31966;SDS011;18496;52.042;6.812;2023-08-20T08:33:29;29.65;;;17.00;;
31966;SDS011;18496;52.042;6.812;2023-08-20T08:35:33;32.60;;;17.00;;
31966;SDS011;18496;52.042;6.812;2023-08-20T08:37:37;29.35;;;17.35;;
31966;SDS011;18496;52.042;6.812;2023-08-20T08:39:41;30.73;;;17.75;;
31966;SDS011;18496;52.042;6.812;2023-08-20T08:41:45;32.83;;;17.42;;
31966;SDS011;18496;52.042;6.812;2023-08-20T08:43:55;40.08;;;17.67;;
31966;SDS011;18496;52.042;6.812;2023-08-20T08:46:00;35.35;;;18.42;;
31966;SDS011;18496;52.042;6.812;2023-08-20T08:48:06;28.52;;;17.80;;
31966;SDS011;18496;52.042;6.812;2023-08-20T08:50:11;29.05;;;17.33;;
31966;SDS011;18496;52.042;6.812;2023-08-20T08:52:15;32.45;;;17.98;;
31966;SDS011;18496;52.042;6.812;2023-08-20T08:54:19;28.80;;;17.20;;
31966;SDS011;18496;52.042;6.812;2023-08-20T08:56:24;27.67;;;17.13;;
31966;SDS011;18496;52.042;6.812;2023-08-20T08:58:28;28.75;;;18.13;;
31966;SDS011;18496;52.042;6.812;2023-08-20T09:00:32;32.03;;;18.45;;
31966;SDS011;18496;52.042;6.812;2023-08-20T09:02:35;34.85;;;18.75;;
31966;SDS011;18496;52.042;6.812;2023-08-20T09:04:42;28.35;;;17.30;;
31966;SDS011;18496;52.042;6.812;2023-08-20T09:06:47;36.30;;;19.30;;
31966;SDS011;18496;52.042;6.812;2023-08-20T09:09:03;31.40;;;18.30;;
31966;SDS011;18496;52.042;6.812;2023-08-20T09:11:08;28.58;;;17.80;;
31966;SDS011;18496;52.042;6.812;2023-08-20T09:13:12;31.60;;;19.17;;
31966;SDS011;18496;52.042;6.812;2023-08-20T09:15:16;27.10;;;18.67;;
31966;SDS011;18496;52.042;6.812;2023-08-20T09:17:20;35.40;;;20.13;;
31966;SDS011;18496;52.042;6.812;2023-08-20T09:19:24;33.45;;;21.15;;
31966;SDS011;18496;52.042;6.812;2023-08-20T09:21:31;30.25;;;19.45;;
31966;SDS011;18496;52.042;6.812;2023-08-20T09:23:35;31.75;;;19.73;;
31966;SDS011;18496;52.042;6.812;2023-08-20T09:25:39;33.15;;;20.92;;
31966;SDS011;18496;52.042;6.812;2023-08-20T09:27:44;30.45;;;19.67;;
31966;SDS011;18496;52.042;6.812;2023-08-20T09:29:48;31.85;;;19.90;;
31966;SDS011;18496;52.042;6.812;2023-08-20T09:31:59;27.90;;;17.30;;
31966;SDS011;18496;52.042;6.812;2023-08-20T09:34:05;29.65;;;20.00;;
31966;SDS011;18496;52.042;6.812;2023-08-20T09:36:09;32.92;;;19.23;;
31966;SDS011;18496;52.042;6.812;2023-08-20T09:38:13;30.17;;;20.08;;
31966;SDS011;18496;52.042;6.812;2023-08-20T09:40:17;35.38;;;22.10;;
31966;SDS011;18496;52.042;6.812;2023-08-20T09:42:21;30.58;;;20.75;;
31966;SDS011;18496;52.042;6.812;2023-08-20T09:44:24;34.20;;;21.40;;
31966;SDS011;18496;52.042;6.812;2023-08-20T09:46:35;33.30;;;22.30;;
31966;SDS011;18496;52.042;6.812;2023-08-20T09:48:40;37.13;;;24.45;;
31966;SDS011;18496;52.042;6.812;2023-08-20T09:50:47;32.55;;;22.77;;
31966;SDS011;18496;52.042;6.812;2023-08-20T09:52:58;30.45;;;22.10;;
31966;SDS011;18496;52.042;6.812;2023-08-20T09:55:16;35.13;;;22.23;;
31966;SDS011;18496;52.042;6.812;2023-08-20T09:59:41;34.50;;;22.67;;
31966;SDS011;18496;52.042;6.812;2023-08-20T10:01:46;35.28;;;22.33;;
31966;SDS011;18496;52.042;6.812;2023-08-20T10:03:51;29.30;;;19.65;;
31966;SDS011;18496;52.042;6.812;2023-08-20T10:05:57;30.20;;;18.63;;
31966;SDS011;18496;52.042;6.812;2023-08-20T10:08:03;25.42;;;17.73;;
31966;SDS011;18496;52.042;6.812;2023-08-20T10:10:07;27.23;;;18.52;;
31966;SDS011;18496;52.042;6.812;2023-08-20T10:12:16;29.35;;;18.50;;
31966;SDS011;18496;52.042;6.812;2023-08-20T10:14:20;26.42;;;17.05;;
31966;SDS011;18496;52.042;6.812;2023-08-20T10:16:24;31.13;;;17.15;;
31966;SDS011;18496;52.042;6.812;2023-08-20T10:18:30;26.30;;;15.23;;
31966;SDS011;18496;52.042;6.812;2023-08-20T10:20:38;25.05;;;14.35;;
31966;SDS011;18496;52.042;6.812;2023-08-20T10:22:45;22.98;;;12.95;;
31966;SDS011;18496;52.042;6.812;2023-08-20T10:24:53;23.73;;;12.70;;
31966;SDS011;18496;52.042;6.812;2023-08-20T10:27:12;22.33;;;13.32;;
31966;SDS011;18496;52.042;6.812;2023-08-20T10:29:35;27.80;;;14.27;;
31966;SDS011;18496;52.042;6.812;2023-08-20T10:31:46;20.17;;;13.50;;
31966;SDS011;18496;52.042;6.812;2023-08-20T10:33:54;17.38;;;10.18;;
31966;SDS011;18496;52.042;6.812;2023-08-20T10:36:06;14.57;;;8.10;;
31966;SDS011;18496;52.042;6.812;2023-08-20T10:38:11;15.00;;;9.63;;
31966;SDS011;18496;52.042;6.812;2023-08-20T10:40:33;19.30;;;12.15;;
31966;SDS011;18496;52.042;6.812;2023-08-20T10:43:01;14.55;;;9.18;;
31966;SDS011;18496;52.042;6.812;2023-08-20T10:45:06;16.98;;;8.27;;
31966;SDS011;18496;52.042;6.812;2023-08-20T10:47:16;15.57;;;7.60;;
31966;SDS011;18496;52.042;6.812;2023-08-20T10:49:21;13.93;;;8.05;;
31966;SDS011;18496;52.042;6.812;2023-08-20T10:53:35;8.95;;;5.22;;
31966;SDS011;18496;52.042;6.812;2023-08-20T10:55:39;14.35;;;5.82;;
31966;SDS011;18496;52.042;6.812;2023-08-20T10:57:55;13.88;;;5.70;;
31966;SDS011;18496;52.042;6.812;2023-08-20T11:00:05;13.98;;;5.90;;
31966;SDS011;18496;52.042;6.812;2023-08-20T11:02:14;13.68;;;4.97;;
31966;SDS011;18496;52.042;6.812;2023-08-20T11:04:21;10.18;;;3.63;;
31966;SDS011;18496;52.042;6.812;2023-08-20T11:06:33;9.13;;;2.38;;
31966;SDS011;18496;52.042;6.812;2023-08-20T11:08:37;7.63;;;2.70;;
31966;SDS011;18496;52.042;6.812;2023-08-20T11:10:42;11.18;;;3.08;;
31966;SDS011;18496;52.042;6.812;2023-08-20T11:12:48;10.15;;;3.78;;
31966;SDS011;18496;52.042;6.812;2023-08-20T11:14:52;12.68;;;4.10;;
31966;SDS011;18496;52.042;6.812;2023-08-20T11:16:56;8.23;;;2.60;;
31966;SDS011;18496;52.042;6.812;2023-08-20T11:18:59;10.63;;;2.88;;
31966;SDS011;18496;52.042;6.812;2023-08-20T11:21:03;7.03;;;3.00;;
31966;SDS011;18496;52.042;6.812;2023-08-20T11:23:08;11.18;;;2.60;;
31966;SDS011;18496;52.042;6.812;2023-08-20T11:25:13;7.13;;;2.53;;
31966;SDS011;18496;52.042;6.812;2023-08-20T11:27:17;9.05;;;2.63;;
31966;SDS011;18496;52.042;6.812;2023-08-20T11:29:21;8.95;;;2.45;;
31966;SDS011;18496;52.042;6.812;2023-08-20T11:31:25;5.22;;;2.28;;
31966;SDS011;18496;52.042;6.812;2023-08-20T11:33:29;6.97;;;2.92;;
31966;SDS011;18496;52.042;6.812;2023-08-20T11:35:33;5.10;;;2.40;;
31966;SDS011;18496;52.042;6.812;2023-08-20T11:37:38;5.70;;;2.03;;
31966;SDS011;18496;52.042;6.812;2023-08-20T11:39:43;4.25;;;1.88;;
31966;SDS011;18496;52.042;6.812;2023-08-20T11:41:47;9.05;;;1.60;;
31966;SDS011;18496;52.042;6.812;2023-08-20T11:43:51;5.25;;;1.70;;
31966;SDS011;18496;52.042;6.812;2023-08-20T11:45:56;6.80;;;2.13;;
31966;SDS011;18496;52.042;6.812;2023-08-20T11:48:00;6.10;;;2.13;;
31966;SDS011;18496;52.042;6.812;2023-08-20T11:50:06;9.15;;;2.17;;
31966;SDS011;18496;52.042;6.812;2023-08-20T11:52:11;4.15;;;1.58;;
31966;SDS011;18496;52.042;6.812;2023-08-20T11:54:20;11.52;;;1.95;;
31966;SDS011;18496;52.042;6.812;2023-08-20T11:56:26;3.20;;;1.30;;
31966;SDS011;18496;52.042;6.812;2023-08-20T11:58:30;7.32;;;1.52;;
31966;SDS011;18496;52.042;6.812;2023-08-20T12:00:34;6.75;;;1.90;;
31966;SDS011;18496;52.042;6.812;2023-08-20T12:02:40;4.07;;;1.30;;
31966;SDS011;18496;52.042;6.812;2023-08-20T12:04:50;5.72;;;1.75;;
31966;SDS011;18496;52.042;6.812;2023-08-20T12:07:04;5.55;;;1.42;;
31966;SDS011;18496;52.042;6.812;2023-08-20T12:09:20;2.63;;;1.20;;
31966;SDS011;18496;52.042;6.812;2023-08-20T12:11:25;5.05;;;1.38;;
31966;SDS011;18496;52.042;6.812;2023-08-20T12:13:30;3.20;;;1.20;;
31966;SDS011;18496;52.042;6.812;2023-08-20T12:15:34;5.72;;;1.40;;
31966;SDS011;18496;52.042;6.812;2023-08-20T12:17:38;4.40;;;1.45;;
31966;SDS011;18496;52.042;6.812;2023-08-20T12:19:42;4.68;;;1.40;;
31966;SDS011;18496;52.042;6.812;2023-08-20T12:21:45;4.00;;;1.35;;
31966;SDS011;18496;52.042;6.812;2023-08-20T12:23:49;4.72;;;1.60;;
31966;SDS011;18496;52.042;6.812;2023-08-20T12:25:53;6.95;;;1.38;;
31966;SDS011;18496;52.042;6.812;2023-08-20T12:27:57;4.38;;;1.38;;
31966;SDS011;18496;52.042;6.812;2023-08-20T12:30:01;3.17;;;1.27;;
31966;SDS011;18496;52.042;6.812;2023-08-20T12:32:06;5.30;;;1.52;;
31966;SDS011;18496;52.042;6.812;2023-08-20T12:34:10;6.22;;;1.10;;